Time;durP1;ratioP1;P1;durP2;ratioP2;P2;SDS_P1;SDS_P2;PMS_P1;PMS_P2;Temp;Humidity;BMP_temperature;BMP_pressure;BME280_temperature;BME280_humidity;BME280_pressure;Samples;Min_cycle;Max_cycle;Signal;HPM_P1;HPM_P2
2022/08/06 00:00:32;;;;;;;6.70;4.10;;;;;;;;;;5035427;28;20549;-87
2022/08/06 00:02:58;;;;;;;6.18;4.22;;;;;;;;;;5034030;28;20025;-87
2022/08/06 00:05:26;;;;;;;7.18;4.43;;;;;;;;;;5035086;28;20034;-86
2022/08/06 00:07:52;;;;;;;7.25;4.38;;;;;;;;;;5034438;28;20040;-88
2022/08/06 00:10:18;;;;;;;8.20;4.40;;;;;;;;;;5033427;28;20057;-78
2022/08/06 00:12:45;;;;;;;4.80;3.97;;;;;;;;;;5032994;28;20064;-88
2022/08/06 00:15:12;;;;;;;6.07;4.25;;;;;;;;;;5035079;28;20048;-88
2022/08/06 00:17:38;;;;;;;5.22;4.10;;;;;;;;;;5034355;28;20048;-87
2022/08/06 00:20:06;;;;;;;10.20;4.03;;;;;;;;;;5032811;28;20037;-87
2022/08/06 00:22:32;;;;;;;13.38;4.70;;;;;;;;;;5034490;28;20104;-81
2022/08/06 00:24:58;;;;;;;7.45;3.92;;;;;;;;;;5034628;28;20025;-73
2022/08/06 00:27:24;;;;;;;6.13;4.30;;;;;;;;;;5034861;28;20013;-87
2022/08/06 00:29:50;;;;;;;5.97;3.78;;;;;;;;;;5032727;28;20025;-86
2022/08/06 00:32:17;;;;;;;4.90;3.92;;;;;;;;;;5034637;28;20030;-88
2022/08/06 00:34:43;;;;;;;5.68;3.92;;;;;;;;;;5033996;28;20053;-82
2022/08/06 00:37:10;;;;;;;7.43;3.58;;;;;;;;;;5034634;28;20061;-87
2022/08/06 00:39:36;;;;;;;4.40;3.90;;;;;;;;;;5033573;28;20036;-90
2022/08/06 00:42:02;;;;;;;6.85;4.00;;;;;;;;;;5032650;28;20029;-86
2022/08/06 00:44:28;;;;;;;4.20;3.70;;;;;;;;;;5034563;28;20099;-88
2022/08/06 00:46:54;;;;;;;6.70;3.78;;;;;;;;;;5034649;28;20037;-77
2022/08/06 00:49:20;;;;;;;6.10;3.97;;;;;;;;;;5034669;28;20021;-90
2022/08/06 00:51:46;;;;;;;5.57;3.80;;;;;;;;;;5030529;28;20967;-88
2022/08/06 00:54:12;;;;;;;6.78;4.10;;;;;;;;;;5030692;28;20018;-84
2022/08/06 00:56:38;;;;;;;6.05;3.95;;;;;;;;;;5034210;28;20076;-79
2022/08/06 00:59:04;;;;;;;4.28;3.65;;;;;;;;;;5033514;28;20076;-88
2022/08/06 01:01:31;;;;;;;7.68;3.72;;;;;;;;;;5033090;28;20025;-79
2022/08/06 01:03:57;;;;;;;6.63;3.70;;;;;;;;;;5033245;28;20475;-82
2022/08/06 01:06:23;;;;;;;7.00;3.88;;;;;;;;;;5034107;28;20032;-88
2022/08/06 01:08:50;;;;;;;6.25;4.15;;;;;;;;;;5033966;28;20029;-84
2022/08/06 01:11:16;;;;;;;5.15;4.20;;;;;;;;;;5033767;28;20024;-87
2022/08/06 01:13:42;;;;;;;6.38;3.85;;;;;;;;;;5032122;28;20105;-81
2022/08/06 01:16:08;;;;;;;4.47;3.60;;;;;;;;;;5033421;28;20037;-84
2022/08/06 01:18:39;;;;;;;4.75;3.80;;;;;;;;;;5032747;28;20083;-83
2022/08/06 01:21:18;;;;;;;17.50;3.83;;;;;;;;;;5033181;28;20026;-88
2022/08/06 01:23:49;;;;;;;16.15;4.30;;;;;;;;;;5032294;28;20060;-82
2022/08/06 01:26:29;;;;;;;24.77;4.85;;;;;;;;;;5033304;28;20022;-86
2022/08/06 01:28:59;;;;;;;21.80;5.10;;;;;;;;;;5033383;28;20030;-68
2022/08/06 01:31:35;;;;;;;12.93;4.40;;;;;;;;;;5031628;28;20356;-67
2022/08/06 01:34:03;;;;;;;6.70;4.07;;;;;;;;;;5030799;28;20025;-85
2022/08/06 01:36:36;;;;;;;7.80;4.03;;;;;;;;;;5033227;28;20132;-85
2022/08/06 01:39:02;;;;;;;6.28;4.40;;;;;;;;;;5032386;28;20463;-80
2022/08/06 01:41:42;;;;;;;4.65;3.83;;;;;;;;;;5033465;28;20124;-86
2022/08/06 01:44:17;;;;;;;7.60;4.47;;;;;;;;;;5014597;28;20021;-78
2022/08/06 01:46:45;;;;;;;5.82;4.38;;;;;;;;;;5032153;28;20025;-83
2022/08/06 01:49:12;;;;;;;6.00;3.70;;;;;;;;;;5033309;28;20025;-85
2022/08/06 01:51:39;;;;;;;4.95;4.00;;;;;;;;;;5032582;28;20044;-85
2022/08/06 01:54:08;;;;;;;5.82;4.18;;;;;;;;;;5029401;28;20068;-86
2022/08/06 01:56:36;;;;;;;4.25;3.85;;;;;;;;;;5031501;28;20030;-87
2022/08/06 01:59:05;;;;;;;4.68;3.97;;;;;;;;;;5032204;28;20076;-83
2022/08/06 02:01:31;;;;;;;4.75;3.78;;;;;;;;;;5033040;28;20439;-80
2022/08/06 02:03:58;;;;;;;7.07;4.55;;;;;;;;;;5033159;28;20017;-84
2022/08/06 02:06:27;;;;;;;5.20;3.70;;;;;;;;;;5031192;28;20033;-87
2022/08/06 02:08:54;;;;;;;8.70;4.05;;;;;;;;;;5032887;28;20025;-82
2022/08/06 02:11:20;;;;;;;8.13;4.20;;;;;;;;;;5033017;28;20029;-74
2022/08/06 02:13:46;;;;;;;6.95;4.40;;;;;;;;;;5032775;28;20021;-75
2022/08/06 02:16:13;;;;;;;7.35;4.00;;;;;;;;;;5032086;28;20037;-69
2022/08/06 02:18:45;;;;;;;7.05;4.05;;;;;;;;;;5030758;28;20029;-76
2022/08/06 02:21:15;;;;;;;5.07;4.10;;;;;;;;;;5032924;28;20147;-87
2022/08/06 02:23:41;;;;;;;6.38;4.18;;;;;;;;;;5032572;28;20022;-90
2022/08/06 02:26:08;;;;;;;6.88;4.00;;;;;;;;;;5023812;28;20479;-85
2022/08/06 02:28:35;;;;;;;9.38;3.88;;;;;;;;;;5030827;28;20049;-83
2022/08/06 02:31:01;;;;;;;4.82;3.75;;;;;;;;;;5031524;28;20438;-87
2022/08/06 02:33:27;;;;;;;6.53;4.38;;;;;;;;;;5032466;28;20060;-85
2022/08/06 02:36:12;;;;;;;6.30;3.90;;;;;;;;;;4996965;28;20554;-76
2022/08/06 02:38:53;;;;;;;9.15;4.50;;;;;;;;;;4991895;28;20501;-82
2022/08/06 02:41:40;;;;;;;5.18;4.18;;;;;;;;;;4994436;28;20034;-87
2022/08/06 02:44:11;;;;;;;8.02;4.00;;;;;;;;;;4992714;28;20069;-83
2022/08/06 02:46:40;;;;;;;6.30;3.70;;;;;;;;;;4993050;28;20022;-88
2022/08/06 02:49:17;;;;;;;6.60;3.90;;;;;;;;;;4999174;28;20542;-86
2022/08/06 02:51:46;;;;;;;8.25;4.10;;;;;;;;;;5002027;28;20027;-87
2022/08/06 02:54:20;;;;;;;10.15;3.65;;;;;;;;;;4992541;28;20027;-82
2022/08/06 02:56:47;;;;;;;4.20;3.28;;;;;;;;;;4992950;28;20125;-80
2022/08/06 02:59:20;;;;;;;6.13;3.33;;;;;;;;;;4995474;28;20033;-83
2022/08/06 03:01:50;;;;;;;5.07;3.55;;;;;;;;;;4993112;28;20022;-87
2022/08/06 03:04:17;;;;;;;3.92;2.83;;;;;;;;;;5000223;28;20034;-83
2022/08/06 03:06:46;;;;;;;5.90;2.97;;;;;;;;;;4993126;28;20023;-85
2022/08/06 03:09:13;;;;;;;3.90;2.90;;;;;;;;;;4992284;28;20032;-86
2022/08/06 03:11:40;;;;;;;6.03;3.05;;;;;;;;;;4993112;28;20025;-84
2022/08/06 03:14:07;;;;;;;4.22;3.00;;;;;;;;;;4992800;28;20523;-79
2022/08/06 03:16:35;;;;;;;4.88;2.88;;;;;;;;;;4992010;28;20042;-85
2022/08/06 03:19:02;;;;;;;4.20;2.90;;;;;;;;;;4992954;28;20058;-84
2022/08/06 03:21:29;;;;;;;4.25;2.95;;;;;;;;;;4996414;28;20077;-86
2022/08/06 03:23:56;;;;;;;7.90;3.22;;;;;;;;;;4993168;28;20081;-88
2022/08/06 03:26:22;;;;;;;3.28;2.83;;;;;;;;;;4992483;28;20034;-87
2022/08/06 03:28:49;;;;;;;5.82;3.30;;;;;;;;;;4992802;28;20018;-86
2022/08/06 03:31:15;;;;;;;6.85;3.00;;;;;;;;;;5004310;28;20026;-85
2022/08/06 03:33:41;;;;;;;6.45;2.97;;;;;;;;;;4992897;28;20030;-87
2022/08/06 03:36:09;;;;;;;5.13;3.05;;;;;;;;;;4991959;28;20086;-88
2022/08/06 03:38:38;;;;;;;5.45;2.95;;;;;;;;;;4992509;28;20023;-87
2022/08/06 03:41:05;;;;;;;4.05;2.63;;;;;;;;;;4992204;28;20466;-88
2022/08/06 03:43:31;;;;;;;4.75;2.95;;;;;;;;;;4992706;28;20029;-85
2022/08/06 03:46:00;;;;;;;5.07;2.90;;;;;;;;;;4994683;28;20030;-87
2022/08/06 03:48:29;;;;;;;10.23;3.25;;;;;;;;;;4995627;28;20041;-85
2022/08/06 03:50:56;;;;;;;3.92;2.83;;;;;;;;;;4997612;28;20026;-84
2022/08/06 03:53:25;;;;;;;6.40;3.03;;;;;;;;;;5005427;28;20026;-80
2022/08/06 03:55:55;;;;;;;7.40;3.10;;;;;;;;;;4995789;28;20042;-84
2022/08/06 03:58:21;;;;;;;7.07;3.20;;;;;;;;;;4995114;28;20495;-88
2022/08/06 04:00:51;;;;;;;8.02;3.03;;;;;;;;;;4998800;28;20113;-82
2022/08/06 04:03:18;;;;;;;6.90;3.33;;;;;;;;;;4996132;28;20377;-86
2022/08/06 04:05:44;;;;;;;5.03;2.80;;;;;;;;;;4995391;28;20543;-78
2022/08/06 04:08:10;;;;;;;5.15;3.10;;;;;;;;;;4995562;28;20159;-81
2022/08/06 04:10:41;;;;;;;5.38;3.22;;;;;;;;;;4994524;28;20042;-70
2022/08/06 04:13:08;;;;;;;6.15;2.97;;;;;;;;;;4995359;28;20077;-85
2022/08/06 04:15:37;;;;;;;9.80;3.58;;;;;;;;;;4995611;28;20038;-77
2022/08/06 04:18:05;;;;;;;6.70;3.13;;;;;;;;;;4999658;28;20023;-87
2022/08/06 04:20:32;;;;;;;5.15;2.97;;;;;;;;;;4995885;28;20088;-86
2022/08/06 04:22:58;;;;;;;5.00;3.08;;;;;;;;;;5004820;28;20053;-87
2022/08/06 04:25:25;;;;;;;7.40;3.00;;;;;;;;;;4995532;28;20058;-86
2022/08/06 04:27:52;;;;;;;9.50;3.08;;;;;;;;;;4980598;28;20023;-87
2022/08/06 04:30:18;;;;;;;7.03;3.10;;;;;;;;;;4982817;28;20030;-80
2022/08/06 04:32:45;;;;;;;5.10;2.83;;;;;;;;;;4985357;28;20025;-87
2022/08/06 04:35:12;;;;;;;7.97;3.60;;;;;;;;;;4995071;28;20050;-84
2022/08/06 04:37:38;;;;;;;9.05;3.28;;;;;;;;;;4998321;28;20038;-83
2022/08/06 04:40:06;;;;;;;22.48;4.55;;;;;;;;;;4994490;28;20058;-85
2022/08/06 04:42:32;;;;;;;31.52;5.20;;;;;;;;;;4994355;28;20089;-84
2022/08/06 04:44:58;;;;;;;20.48;4.50;;;;;;;;;;4996163;28;20038;-88
2022/08/06 04:47:24;;;;;;;11.10;3.88;;;;;;;;;;4994844;28;20023;-85
2022/08/06 04:49:50;;;;;;;9.85;3.70;;;;;;;;;;4994880;28;20030;-82
2022/08/06 04:52:23;;;;;;;19.88;4.78;;;;;;;;;;4993225;28;20113;-75
2022/08/06 04:54:49;;;;;;;12.48;3.70;;;;;;;;;;4999468;28;20034;-75
2022/08/06 04:57:15;;;;;;;5.68;2.92;;;;;;;;;;4994881;28;20027;-74
2022/08/06 04:59:41;;;;;;;9.93;3.22;;;;;;;;;;4995993;28;20054;-79
2022/08/06 05:02:08;;;;;;;10.18;3.90;;;;;;;;;;4999012;28;20492;-85
2022/08/06 05:04:34;;;;;;;12.73;3.70;;;;;;;;;;4997415;28;20049;-79
2022/08/06 05:07:12;;;;;;;9.98;3.50;;;;;;;;;;4993703;28;20109;-67
2022/08/06 05:09:39;;;;;;;8.48;3.60;;;;;;;;;;4985396;28;20022;-81
2022/08/06 05:12:06;;;;;;;10.25;3.97;;;;;;;;;;4987162;28;20387;-82
2022/08/06 05:14:41;;;;;;;8.65;3.50;;;;;;;;;;4995549;28;20022;-77
2022/08/06 05:17:09;;;;;;;6.38;3.40;;;;;;;;;;4998220;28;20068;-85
2022/08/06 05:19:39;;;;;;;7.32;3.20;;;;;;;;;;4999695;28;20067;-83
2022/08/06 05:22:06;;;;;;;9.65;3.50;;;;;;;;;;5004419;28;20025;-79
2022/08/06 05:24:33;;;;;;;9.82;3.85;;;;;;;;;;4999458;28;20026;-78
2022/08/06 05:26:59;;;;;;;8.15;3.40;;;;;;;;;;4999252;28;20032;-72
2022/08/06 05:29:25;;;;;;;5.28;3.40;;;;;;;;;;4995106;28;20019;-72
2022/08/06 05:31:58;;;;;;;4.85;3.30;;;;;;;;;;5000426;28;20038;-81
2022/08/06 05:34:24;;;;;;;6.25;3.65;;;;;;;;;;4997815;28;20061;-80
2022/08/06 05:36:50;;;;;;;15.57;4.15;;;;;;;;;;5001335;28;20125;-79
2022/08/06 05:39:16;;;;;;;24.92;4.40;;;;;;;;;;4992615;28;20018;-83
2022/08/06 05:41:42;;;;;;;10.40;3.63;;;;;;;;;;4994499;28;20022;-80
2022/08/06 05:44:08;;;;;;;6.50;3.65;;;;;;;;;;4993801;28;20371;-82
2022/08/06 05:46:39;;;;;;;6.68;3.58;;;;;;;;;;4993748;28;20038;-77
2022/08/06 05:49:11;;;;;;;5.60;3.53;;;;;;;;;;4993565;28;20097;-76
2022/08/06 05:51:37;;;;;;;10.47;3.40;;;;;;;;;;4993776;28;20102;-81
2022/08/06 05:54:11;;;;;;;5.55;3.70;;;;;;;;;;4993484;28;20404;-80
2022/08/06 05:56:41;;;;;;;6.70;3.80;;;;;;;;;;4998780;28;20487;-86
2022/08/06 05:59:27;;;;;;;6.28;3.60;;;;;;;;;;4996827;28;20101;-78
2022/08/06 06:01:54;;;;;;;9.30;4.07;;;;;;;;;;4988144;28;20369;-81
2022/08/06 06:04:20;;;;;;;8.68;4.10;;;;;;;;;;4993954;28;20031;-84
2022/08/06 06:06:46;;;;;;;6.82;3.80;;;;;;;;;;4989261;28;20027;-84
2022/08/06 06:09:13;;;;;;;6.57;3.55;;;;;;;;;;4991612;28;20472;-80
2022/08/06 06:11:39;;;;;;;6.63;3.78;;;;;;;;;;4994210;28;20041;-79
2022/08/06 06:14:07;;;;;;;7.57;3.67;;;;;;;;;;5000602;28;20077;-79
2022/08/06 06:16:43;;;;;;;6.53;3.38;;;;;;;;;;4988347;28;20073;-71
2022/08/06 06:19:18;;;;;;;7.22;3.65;;;;;;;;;;5002824;28;20361;-77
2022/08/06 06:21:53;;;;;;;5.60;3.53;;;;;;;;;;4994874;28;20066;-79
2022/08/06 06:24:28;;;;;;;6.45;3.60;;;;;;;;;;4991375;28;20125;-74
2022/08/06 06:27:00;;;;;;;7.15;3.97;;;;;;;;;;5003163;28;20027;-73
2022/08/06 06:29:45;;;;;;;5.15;3.70;;;;;;;;;;4993531;28;20034;-78
2022/08/06 06:32:29;;;;;;;9.18;4.05;;;;;;;;;;4989574;28;20117;-76
2022/08/06 06:35:00;;;;;;;4.85;4.10;;;;;;;;;;4989106;28;20097;-80
2022/08/06 06:37:48;;;;;;;6.18;4.07;;;;;;;;;;4993167;28;20034;-79
2022/08/06 06:40:23;;;;;;;5.68;4.10;;;;;;;;;;4992532;28;20093;-77
2022/08/06 06:42:56;;;;;;;6.80;4.10;;;;;;;;;;4992396;28;20392;-75
2022/08/06 06:45:31;;;;;;;8.70;4.30;;;;;;;;;;4993264;28;20109;-77
2022/08/06 06:48:05;;;;;;;5.85;4.20;;;;;;;;;;4992664;28;20362;-76
2022/08/06 06:50:34;;;;;;;9.63;4.55;;;;;;;;;;4990495;28;20038;-74
2022/08/06 06:53:00;;;;;;;7.72;5.78;;;;;;;;;;4992103;28;20107;-77
2022/08/06 06:55:26;;;;;;;11.27;6.30;;;;;;;;;;4993702;28;20476;-78
2022/08/06 06:57:55;;;;;;;11.00;5.40;;;;;;;;;;4992643;28;20035;-78
2022/08/06 07:00:21;;;;;;;13.80;5.45;;;;;;;;;;4992311;28;20025;-78
2022/08/06 07:02:48;;;;;;;13.40;5.40;;;;;;;;;;4990925;28;20061;-77
2022/08/06 07:05:15;;;;;;;9.10;5.80;;;;;;;;;;4997766;28;20030;-74
2022/08/06 07:07:43;;;;;;;9.00;5.45;;;;;;;;;;4992082;28;20050;-78
2022/08/06 07:10:10;;;;;;;14.27;5.25;;;;;;;;;;4991919;28;20023;-72
2022/08/06 07:12:37;;;;;;;10.55;5.40;;;;;;;;;;4992465;28;20432;-77
2022/08/06 07:15:04;;;;;;;9.88;4.75;;;;;;;;;;4989145;28;20046;-77
2022/08/06 07:17:32;;;;;;;19.50;5.80;;;;;;;;;;4988881;28;20030;-80
2022/08/06 07:20:00;;;;;;;24.25;5.85;;;;;;;;;;4992706;28;20546;-80
2022/08/06 07:22:27;;;;;;;10.70;5.35;;;;;;;;;;4996127;28;20484;-77
2022/08/06 07:24:58;;;;;;;11.73;4.65;;;;;;;;;;4993229;28;20030;-68
2022/08/06 07:27:25;;;;;;;8.90;4.20;;;;;;;;;;4996247;28;20038;-77
2022/08/06 07:29:52;;;;;;;11.48;4.57;;;;;;;;;;4995631;28;20034;-76
2022/08/06 07:32:18;;;;;;;7.25;4.45;;;;;;;;;;4996184;28;20053;-80
2022/08/06 07:34:45;;;;;;;10.93;4.72;;;;;;;;;;4995753;28;20042;-75
2022/08/06 07:37:11;;;;;;;11.60;4.80;;;;;;;;;;4995867;28;20403;-77
2022/08/06 07:39:38;;;;;;;13.35;4.75;;;;;;;;;;4995312;28;20186;-77
2022/08/06 07:42:08;;;;;;;10.98;4.75;;;;;;;;;;4995955;28;20109;-78
2022/08/06 07:44:36;;;;;;;10.32;5.07;;;;;;;;;;4994685;28;20026;-70
2022/08/06 07:47:03;;;;;;;11.13;4.70;;;;;;;;;;4987234;28;20082;-77
2022/08/06 07:49:33;;;;;;;8.68;4.20;;;;;;;;;;4995277;28;20026;-78
2022/08/06 07:52:00;;;;;;;18.63;4.82;;;;;;;;;;4994299;28;20476;-71
2022/08/06 07:54:30;;;;;;;11.35;4.10;;;;;;;;;;4995339;28;20077;-80
2022/08/06 07:56:57;;;;;;;25.20;4.38;;;;;;;;;;4994382;28;20046;-78
2022/08/06 07:59:23;;;;;;;15.30;3.80;;;;;;;;;;4995026;28;20369;-78
2022/08/06 08:01:51;;;;;;;10.68;4.93;;;;;;;;;;4994350;28;20034;-77
2022/08/06 08:07:02;;;;;;;26.92;8.30;;;;;;;;;;4994687;28;20081;-80
2022/08/06 08:09:29;;;;;;;9.43;3.78;;;;;;;;;;4994840;28;20023;-79
2022/08/06 08:11:56;;;;;;;34.20;6.47;;;;;;;;;;4992774;28;20400;-73
2022/08/06 08:14:22;;;;;;;67.18;10.57;;;;;;;;;;4995225;28;20109;-79
2022/08/06 08:16:49;;;;;;;13.80;4.20;;;;;;;;;;4995443;28;20026;-75
2022/08/06 08:19:30;;;;;;;14.27;4.13;;;;;;;;;;4994752;28;20033;-69
2022/08/06 08:21:58;;;;;;;25.58;5.65;;;;;;;;;;4983386;28;20034;-71
2022/08/06 08:24:25;;;;;;;22.40;5.47;;;;;;;;;;4995280;28;20109;-69
2022/08/06 08:26:51;;;;;;;11.70;4.15;;;;;;;;;;4995104;28;20076;-80
2022/08/06 08:29:17;;;;;;;6.90;3.50;;;;;;;;;;4994861;28;20030;-78
2022/08/06 08:31:43;;;;;;;7.78;3.42;;;;;;;;;;4994399;28;20480;-78
2022/08/06 08:34:11;;;;;;;81.78;8.65;;;;;;;;;;4994821;28;20057;-77
2022/08/06 08:36:37;;;;;;;12.50;4.13;;;;;;;;;;4994732;28;20034;-79
2022/08/06 08:39:03;;;;;;;11.15;3.60;;;;;;;;;;4994149;28;20041;-77
2022/08/06 08:41:49;;;;;;;9.38;3.70;;;;;;;;;;4994834;28;20018;-72
2022/08/06 08:44:21;;;;;;;5.90;3.33;;;;;;;;;;4983954;28;20033;-69
2022/08/06 08:46:48;;;;;;;7.38;3.10;;;;;;;;;;4996973;28;20029;-81
2022/08/06 08:49:19;;;;;;;11.70;3.13;;;;;;;;;;4990329;28;20026;-89
2022/08/06 08:51:46;;;;;;;8.07;2.90;;;;;;;;;;4996121;28;20073;-85
2022/08/06 08:54:14;;;;;;;7.82;3.28;;;;;;;;;;4992887;28;20026;-73
2022/08/06 08:56:40;;;;;;;5.70;3.10;;;;;;;;;;4993574;28;20608;-75
2022/08/06 08:59:07;;;;;;;6.72;2.90;;;;;;;;;;5008727;28;20077;-74
2022/08/06 09:01:34;;;;;;;10.63;3.15;;;;;;;;;;4999248;28;20023;-75
2022/08/06 09:04:04;;;;;;;4.80;2.97;;;;;;;;;;4995242;28;20034;-77
2022/08/06 09:06:32;;;;;;;4.75;3.00;;;;;;;;;;4991637;28;20046;-67
2022/08/06 09:09:03;;;;;;;7.07;2.97;;;;;;;;;;4991892;28;20042;-77
2022/08/06 09:11:29;;;;;;;5.40;3.10;;;;;;;;;;4994275;28;20030;-76
2022/08/06 09:13:55;;;;;;;4.78;3.75;;;;;;;;;;4993148;28;20030;-71
2022/08/06 09:16:21;;;;;;;7.68;3.00;;;;;;;;;;4992453;28;20050;-70
2022/08/06 09:18:47;;;;;;;15.15;3.70;;;;;;;;;;4993753;28;20553;-77
2022/08/06 09:21:14;;;;;;;10.63;3.40;;;;;;;;;;4994557;28;20062;-73
2022/08/06 09:23:40;;;;;;;3.95;3.10;;;;;;;;;;4993797;28;20034;-69
2022/08/06 09:26:06;;;;;;;7.38;3.05;;;;;;;;;;4993916;28;20026;-77
2022/08/06 09:28:37;;;;;;;6.45;3.20;;;;;;;;;;4993907;28;20109;-77
2022/08/06 09:31:05;;;;;;;4.15;3.28;;;;;;;;;;4994106;28;20026;-77
2022/08/06 09:33:32;;;;;;;5.00;3.03;;;;;;;;;;4993821;28;20424;-76
2022/08/06 09:35:59;;;;;;;9.57;3.80;;;;;;;;;;4991463;28;20050;-76
2022/08/06 09:38:27;;;;;;;5.45;2.92;;;;;;;;;;4990599;28;20065;-72
2022/08/06 09:41:10;;;;;;;18.63;3.75;;;;;;;;;;4993607;28;20022;-69
2022/08/06 09:43:36;;;;;;;4.15;3.00;;;;;;;;;;4993162;28;20057;-66
2022/08/06 09:46:03;;;;;;;6.38;3.13;;;;;;;;;;4992484;28;20061;-76
2022/08/06 09:48:29;;;;;;;6.68;2.70;;;;;;;;;;4986201;28;20105;-77
2022/08/06 09:50:55;;;;;;;28.85;4.35;;;;;;;;;;4986650;28;20029;-69
2022/08/06 09:53:22;;;;;;;8.32;3.35;;;;;;;;;;4987688;28;20026;-67
2022/08/06 09:55:52;;;;;;;4.30;2.85;;;;;;;;;;4988297;28;20034;-73
2022/08/06 09:58:33;;;;;;;13.82;2.88;;;;;;;;;;4990184;28;20485;-80
2022/08/06 10:01:20;;;;;;;12.85;3.53;;;;;;;;;;4992630;28;20084;-72
2022/08/06 10:03:46;;;;;;;9.52;3.00;;;;;;;;;;4993932;28;20058;-74
2022/08/06 10:06:14;;;;;;;6.63;3.03;;;;;;;;;;4997209;28;20054;-75
2022/08/06 10:08:40;;;;;;;6.00;2.95;;;;;;;;;;4990979;28;20018;-78
2022/08/06 10:11:07;;;;;;;4.80;2.97;;;;;;;;;;4990000;28;20034;-73
2022/08/06 10:13:34;;;;;;;4.35;2.80;;;;;;;;;;4992089;28;20037;-73
2022/08/06 10:16:01;;;;;;;7.80;3.10;;;;;;;;;;4992883;28;20034;-68
2022/08/06 10:18:36;;;;;;;15.07;4.38;;;;;;;;;;4993800;28;20482;-72
2022/08/06 10:21:32;;;;;;;6.30;3.10;;;;;;;;;;4992892;28;20496;-69
2022/08/06 10:24:03;;;;;;;4.93;3.08;;;;;;;;;;4914187;29;20124;-74
2022/08/06 10:26:33;;;;;;;7.90;2.70;;;;;;;;;;4907774;29;20128;-71
2022/08/06 10:29:04;;;;;;;4.95;3.10;;;;;;;;;;4907029;29;20059;-84
2022/08/06 10:31:31;;;;;;;5.88;3.13;;;;;;;;;;4911619;29;20036;-71
2022/08/06 10:34:01;;;;;;;12.80;3.45;;;;;;;;;;4915136;28;20589;-68
2022/08/06 10:36:30;;;;;;;6.38;3.05;;;;;;;;;;4937211;29;20059;-70
2022/08/06 10:38:56;;;;;;;4.10;3.20;;;;;;;;;;4945221;29;20036;-74
2022/08/06 10:41:23;;;;;;;8.82;3.35;;;;;;;;;;4932176;29;20458;-70
2022/08/06 10:43:49;;;;;;;9.68;3.38;;;;;;;;;;4910210;29;20437;-75
2022/08/06 10:46:15;;;;;;;10.85;3.42;;;;;;;;;;4931306;29;20028;-66
2022/08/06 10:48:42;;;;;;;14.35;4.03;;;;;;;;;;4927123;29;20028;-73
2022/08/06 10:51:09;;;;;;;7.40;3.47;;;;;;;;;;4923380;29;20044;-76
2022/08/06 10:53:37;;;;;;;4.47;3.28;;;;;;;;;;4931864;29;20040;-76
2022/08/06 10:56:05;;;;;;;10.88;4.30;;;;;;;;;;4944825;29;20062;-71
2022/08/06 10:58:31;;;;;;;11.02;3.35;;;;;;;;;;4933871;29;20506;-67
2022/08/06 11:00:59;;;;;;;4.68;2.70;;;;;;;;;;4993625;28;20073;-74
2022/08/06 11:03:41;;;;;;;5.15;3.10;;;;;;;;;;5026959;28;20034;-75
2022/08/06 11:06:30;;;;;;;5.45;2.72;;;;;;;;;;5013656;28;20065;-65
2022/08/06 11:08:56;;;;;;;5.30;2.70;;;;;;;;;;4931405;29;20036;-73
2022/08/06 11:11:37;;;;;;;11.55;3.45;;;;;;;;;;4933111;29;20047;-69
2022/08/06 11:14:06;;;;;;;12.02;3.40;;;;;;;;;;4935625;29;20063;-76
2022/08/06 11:16:32;;;;;;;8.05;2.90;;;;;;;;;;4933914;29;20485;-68
2022/08/06 11:19:16;;;;;;;9.10;3.20;;;;;;;;;;4936455;29;20059;-69
2022/08/06 11:21:42;;;;;;;5.57;2.90;;;;;;;;;;4933433;29;20047;-73
2022/08/06 11:24:08;;;;;;;3.53;2.80;;;;;;;;;;4933837;29;20036;-66
2022/08/06 11:26:38;;;;;;;4.60;2.97;;;;;;;;;;4934326;29;20031;-72
2022/08/06 11:29:05;;;;;;;5.80;3.10;;;;;;;;;;4931035;29;20517;-72
2022/08/06 11:31:31;;;;;;;5.18;2.92;;;;;;;;;;4932924;29;20370;-76
2022/08/06 11:34:03;;;;;;;4.50;2.90;;;;;;;;;;4938205;28;20036;-74
2022/08/06 11:36:42;;;;;;;6.82;2.90;;;;;;;;;;4953438;28;20051;-76
2022/08/06 11:39:09;;;;;;;4.45;2.70;;;;;;;;;;4952783;28;20044;-67
2022/08/06 11:41:44;;;;;;;5.38;3.28;;;;;;;;;;4951203;28;20035;-76
2022/08/06 11:44:12;;;;;;;3.88;3.03;;;;;;;;;;4951401;28;20050;-75
2022/08/06 11:46:39;;;;;;;5.75;3.17;;;;;;;;;;5018889;28;20038;-74
2022/08/06 11:49:16;;;;;;;5.43;3.08;;;;;;;;;;5032025;28;20053;-75
2022/08/06 11:51:45;;;;;;;6.57;3.42;;;;;;;;;;5032927;28;20076;-72
2022/08/06 11:54:14;;;;;;;7.85;3.50;;;;;;;;;;5032288;28;20030;-72
2022/08/06 11:57:02;;;;;;;5.28;2.75;;;;;;;;;;5032315;28;20107;-74
2022/08/06 11:59:28;;;;;;;9.73;3.47;;;;;;;;;;5032287;28;20087;-73
2022/08/06 12:01:54;;;;;;;7.97;2.97;;;;;;;;;;5034520;28;20071;-75
2022/08/06 12:04:32;;;;;;;3.78;3.08;;;;;;;;;;5033835;28;20033;-77
2022/08/06 12:07:13;;;;;;;3.88;2.80;;;;;;;;;;5030415;28;20211;-73
2022/08/06 12:09:40;;;;;;;5.70;2.78;;;;;;;;;;5028514;28;20108;-75
2022/08/06 12:12:24;;;;;;;5.18;2.78;;;;;;;;;;5034192;28;20084;-75
2022/08/06 12:14:50;;;;;;;5.13;3.00;;;;;;;;;;5034445;28;20088;-75
2022/08/06 12:17:17;;;;;;;4.63;3.20;;;;;;;;;;5031391;28;20041;-74
2022/08/06 12:19:45;;;;;;;5.70;2.97;;;;;;;;;;5031853;28;20048;-68
2022/08/06 12:22:14;;;;;;;3.60;2.90;;;;;;;;;;5029158;28;20099;-77
2022/08/06 12:24:40;;;;;;;3.67;2.83;;;;;;;;;;5032403;28;20076;-76
2022/08/06 12:27:07;;;;;;;4.30;3.17;;;;;;;;;;5031000;28;20052;-76
2022/08/06 12:29:33;;;;;;;4.68;2.92;;;;;;;;;;5032693;28;20035;-72
2022/08/06 12:31:59;;;;;;;6.07;3.10;;;;;;;;;;5034122;28;20021;-74
2022/08/06 12:34:27;;;;;;;5.53;3.13;;;;;;;;;;5023482;28;20495;-75
2022/08/06 12:36:53;;;;;;;4.47;3.10;;;;;;;;;;5028249;28;20069;-73
2022/08/06 12:39:19;;;;;;;7.30;3.20;;;;;;;;;;5030569;28;20028;-74
2022/08/06 12:41:45;;;;;;;6.03;3.20;;;;;;;;;;5036167;28;20030;-75
2022/08/06 12:44:12;;;;;;;8.02;3.20;;;;;;;;;;5039741;28;20018;-74
2022/08/06 12:46:38;;;;;;;11.70;3.60;;;;;;;;;;5030534;28;20061;-75
2022/08/06 12:49:04;;;;;;;8.00;3.92;;;;;;;;;;5026891;28;20026;-76
2022/08/06 12:51:30;;;;;;;52.50;16.40;;;;;;;;;;5033125;28;20025;-65
2022/08/06 12:54:00;;;;;;;8.70;4.00;;;;;;;;;;5032423;28;20475;-69
2022/08/06 12:56:28;;;;;;;10.73;4.47;;;;;;;;;;5031713;28;20124;-70
2022/08/06 12:58:55;;;;;;;57.65;18.70;;;;;;;;;;5033147;28;20385;-74
2022/08/06 13:01:23;;;;;;;36.88;12.88;;;;;;;;;;5028926;28;20037;-68
2022/08/06 13:03:50;;;;;;;3.97;2.80;;;;;;;;;;5027442;28;20034;-76
2022/08/06 13:06:18;;;;;;;3.90;3.25;;;;;;;;;;5029481;28;20083;-75
2022/08/06 13:08:48;;;;;;;12.70;3.58;;;;;;;;;;5030552;28;20021;-72
2022/08/06 13:11:14;;;;;;;6.63;3.20;;;;;;;;;;5028353;28;20029;-74
2022/08/06 13:13:46;;;;;;;7.80;3.42;;;;;;;;;;5029438;28;20017;-74
2022/08/06 13:16:13;;;;;;;4.60;2.97;;;;;;;;;;5022415;28;20032;-72
2022/08/06 13:18:40;;;;;;;5.15;2.80;;;;;;;;;;5031182;28;20513;-74
2022/08/06 13:21:19;;;;;;;5.72;3.25;;;;;;;;;;5030718;28;20096;-71
2022/08/06 13:23:47;;;;;;;7.40;2.90;;;;;;;;;;5024666;28;20048;-70
2022/08/06 13:26:26;;;;;;;7.47;3.30;;;;;;;;;;5031642;28;20029;-72
2022/08/06 13:29:14;;;;;;;6.50;2.92;;;;;;;;;;5029698;28;20091;-71
2022/08/06 13:31:40;;;;;;;3.97;3.13;;;;;;;;;;5028295;28;20018;-72
2022/08/06 13:34:09;;;;;;;9.98;3.42;;;;;;;;;;5026530;28;20048;-73
2022/08/06 13:36:36;;;;;;;8.27;3.33;;;;;;;;;;5026227;28;20139;-72
2022/08/06 13:39:38;;;;;;;3.72;3.10;;;;;;;;;;5032427;28;20053;-72
2022/08/06 13:42:05;;;;;;;4.10;2.95;;;;;;;;;;4951937;28;20058;-77
2022/08/06 13:44:35;;;;;;;5.72;3.03;;;;;;;;;;4955873;28;20118;-79
2022/08/06 13:47:01;;;;;;;4.70;2.70;;;;;;;;;;4956036;28;20039;-76
2022/08/06 13:49:27;;;;;;;6.30;3.00;;;;;;;;;;4937595;28;20393;-77
2022/08/06 13:51:54;;;;;;;4.32;3.00;;;;;;;;;;4944507;28;20501;-76
2022/08/06 13:54:20;;;;;;;4.93;3.00;;;;;;;;;;4951397;28;20041;-76
2022/08/06 13:56:47;;;;;;;7.50;3.28;;;;;;;;;;4954060;28;20043;-71
2022/08/06 13:59:13;;;;;;;5.80;3.25;;;;;;;;;;4950817;28;20023;-73
2022/08/06 14:01:39;;;;;;;4.68;3.38;;;;;;;;;;4952914;29;20039;-69
2022/08/06 14:04:05;;;;;;;7.22;3.00;;;;;;;;;;4951623;28;20039;-71
2022/08/06 14:06:31;;;;;;;7.20;3.00;;;;;;;;;;4952317;29;20065;-72
2022/08/06 14:08:57;;;;;;;5.32;3.10;;;;;;;;;;4952431;29;20035;-69
2022/08/06 14:11:23;;;;;;;5.93;3.10;;;;;;;;;;4952113;28;20023;-68
2022/08/06 14:13:49;;;;;;;4.75;3.40;;;;;;;;;;4952305;28;20516;-71
2022/08/06 14:16:15;;;;;;;4.32;3.20;;;;;;;;;;4998509;28;20491;-73
2022/08/06 14:18:41;;;;;;;8.43;2.92;;;;;;;;;;5032459;28;20530;-65
2022/08/06 14:21:08;;;;;;;6.85;3.22;;;;;;;;;;5032533;28;20033;-71
2022/08/06 14:23:34;;;;;;;11.18;3.25;;;;;;;;;;5030196;28;20041;-67
2022/08/06 14:26:01;;;;;;;7.38;3.13;;;;;;;;;;5030292;28;20035;-75
2022/08/06 14:28:27;;;;;;;7.88;3.22;;;;;;;;;;5011696;28;20483;-64
2022/08/06 14:30:53;;;;;;;5.85;3.30;;;;;;;;;;5029931;28;20104;-73
2022/08/06 14:33:20;;;;;;;6.15;3.40;;;;;;;;;;5030960;28;20024;-65
2022/08/06 14:35:46;;;;;;;51.20;5.15;;;;;;;;;;5029109;28;20041;-69
2022/08/06 14:38:12;;;;;;;3.83;2.92;;;;;;;;;;5032154;28;20071;-75
2022/08/06 14:46:08;;;;;;;5.88;3.38;;;;;;;;;;5029764;28;20049;-69
2022/08/06 14:48:34;;;;;;;5.03;3.33;;;;;;;;;;5022673;28;20072;-69
2022/08/06 14:51:00;;;;;;;9.18;3.33;;;;;;;;;;5029063;28;20037;-68
2022/08/06 14:53:26;;;;;;;5.75;2.80;;;;;;;;;;5031752;28;20049;-69
2022/08/06 14:55:52;;;;;;;6.15;3.20;;;;;;;;;;5031741;28;20083;-70
2022/08/06 14:58:18;;;;;;;7.53;3.00;;;;;;;;;;5028390;28;20029;-77